Rogers, Arkansas
Current Conditions -  °F | °C
As of 2:57 AM on Wednesday 26 Nov 2014 (Local Time) from KROG Reporting Station
Clear Clear  
Wind Chill: 25°   Ceiling: Unl
Heat Index: 34°   Visibility: 10mi
Dew Point: 24°   Wind: 12mph
Humidity: 67%   Direction: 140°SE
Pressure: 30.01"   Gusts: NA
Location:  36.33°N, 94.12°W
Report Text: KROG 260857Z AUTO 14010KT 10SM CLR 01/M04 A3001 RMK AO2 SLP166 T00111044 56026 TSNO
Loading
Personal Weather Stations






























Interactive Weather Map New forecast layout! Learn more

10-Day Weather Forecast

Advertisements
Track Severe Weather on mobile